createdAt,value
2017-08-14T00:00:03.346Z,0
2017-08-14T00:01:04.769Z,0
2017-08-14T00:02:06.192Z,0
2017-08-14T00:03:07.618Z,0
2017-08-14T00:04:09.046Z,0
2017-08-14T00:05:10.471Z,0
2017-08-14T00:06:11.893Z,0
2017-08-14T00:07:13.332Z,0
2017-08-14T00:08:14.754Z,0
2017-08-14T00:09:16.179Z,0
2017-08-14T00:10:17.609Z,0
2017-08-14T00:11:19.028Z,0
2017-08-14T00:12:20.462Z,0
2017-08-14T00:13:21.881Z,0
2017-08-14T00:14:23.307Z,0
2017-08-14T00:15:24.731Z,0
2017-08-14T00:16:26.153Z,0
2017-08-14T00:17:27.585Z,0
2017-08-14T00:18:29.018Z,0
2017-08-14T00:19:30.445Z,0
2017-08-14T00:20:31.869Z,0
2017-08-14T00:21:33.290Z,0
2017-08-14T00:22:34.710Z,0
2017-08-14T00:23:36.135Z,0
2017-08-14T00:24:37.561Z,0
2017-08-14T00:25:38.985Z,0
2017-08-14T00:26:40.417Z,0
2017-08-14T00:27:41.832Z,0
2017-08-14T00:28:43.261Z,0
2017-08-14T00:29:44.685Z,0
2017-08-14T00:30:46.123Z,0
2017-08-14T00:31:48.400Z,0
2017-08-14T00:32:49.837Z,0
2017-08-14T00:33:51.263Z,0
2017-08-14T00:34:52.684Z,0
2017-08-14T00:35:54.108Z,0
2017-08-14T00:36:55.530Z,0
2017-08-14T00:37:56.960Z,0
2017-08-14T00:38:58.379Z,0
2017-08-14T00:39:59.800Z,0
2017-08-14T00:41:01.230Z,0
2017-08-14T00:42:02.652Z,0
2017-08-14T00:43:04.075Z,0
2017-08-14T00:44:05.494Z,0
2017-08-14T00:45:06.916Z,0
2017-08-14T00:46:08.336Z,0
2017-08-14T00:47:09.760Z,0
2017-08-14T00:48:11.189Z,0
2017-08-14T00:49:12.613Z,0
2017-08-14T00:50:14.032Z,0
2017-08-14T00:51:15.454Z,0
2017-08-14T00:52:16.877Z,0
2017-08-14T00:53:18.295Z,0
2017-08-14T00:54:19.715Z,0
2017-08-14T00:55:21.137Z,0
2017-08-14T00:56:22.558Z,0
2017-08-14T00:57:23.979Z,0
2017-08-14T00:58:25.398Z,0
2017-08-14T00:59:26.818Z,0
2017-08-14T01:00:28.243Z,0
2017-08-14T01:01:29.671Z,0
2017-08-14T01:02:31.095Z,0
2017-08-14T01:03:32.518Z,0
2017-08-14T01:04:33.937Z,0
2017-08-14T01:05:35.366Z,0
2017-08-14T01:06:36.786Z,0
2017-08-14T01:07:38.213Z,0
2017-08-14T01:08:39.634Z,0
2017-08-14T01:09:41.053Z,0
2017-08-14T01:10:42.528Z,0
2017-08-14T01:11:43.954Z,0
2017-08-14T01:12:45.394Z,0
2017-08-14T01:13:46.818Z,0
2017-08-14T01:14:48.276Z,0
2017-08-14T01:15:49.701Z,0
2017-08-14T01:16:51.125Z,0
2017-08-14T01:17:52.547Z,0
2017-08-14T01:18:53.970Z,0
2017-08-14T01:19:55.407Z,0
2017-08-14T01:20:56.827Z,0
2017-08-14T01:21:58.286Z,0
2017-08-14T01:22:59.714Z,0
2017-08-14T01:24:01.139Z,0
2017-08-14T01:25:02.569Z,0
2017-08-14T01:26:03.988Z,0
2017-08-14T01:27:05.412Z,0
2017-08-14T01:28:06.827Z,0
2017-08-14T01:29:08.260Z,0
2017-08-14T01:30:09.684Z,0
2017-08-14T01:31:11.116Z,0
2017-08-14T01:32:12.551Z,0
2017-08-14T01:33:13.974Z,0
2017-08-14T01:34:15.410Z,0
2017-08-14T01:35:16.834Z,0
2017-08-14T01:36:18.261Z,0
2017-08-14T01:37:19.680Z,0
2017-08-14T01:38:21.099Z,0
2017-08-14T01:39:22.518Z,0
2017-08-14T01:40:23.938Z,0
2017-08-14T01:41:25.360Z,0
2017-08-14T01:42:26.776Z,0
2017-08-14T01:43:28.200Z,0
2017-08-14T01:44:29.626Z,0
2017-08-14T01:45:31.051Z,0
2017-08-14T01:46:32.469Z,0
2017-08-14T01:47:33.887Z,0
2017-08-14T01:48:35.319Z,0
2017-08-14T01:49:36.736Z,0
2017-08-14T01:50:38.160Z,0
2017-08-14T01:51:39.580Z,0
2017-08-14T01:52:41.004Z,0
2017-08-14T01:53:42.426Z,0
2017-08-14T01:54:43.846Z,0
2017-08-14T01:55:45.281Z,0
2017-08-14T01:56:46.700Z,0
2017-08-14T01:57:48.119Z,0
2017-08-14T01:58:49.556Z,0
2017-08-14T01:59:50.984Z,0
2017-08-14T02:00:52.398Z,0
2017-08-14T02:01:53.862Z,0
2017-08-14T02:02:55.283Z,0
2017-08-14T02:03:56.705Z,0
2017-08-14T02:04:58.126Z,0
2017-08-14T02:05:59.551Z,0
2017-08-14T02:07:00.980Z,0
2017-08-14T02:08:02.399Z,0
2017-08-14T02:09:03.817Z,0
2017-08-14T02:10:05.237Z,0
2017-08-14T02:11:06.686Z,0
2017-08-14T02:12:08.077Z,0
2017-08-14T02:13:09.501Z,0
2017-08-14T02:14:10.923Z,0
2017-08-14T02:15:12.354Z,0
2017-08-14T02:16:13.772Z,0
2017-08-14T02:17:15.196Z,0
2017-08-14T02:18:16.621Z,0
2017-08-14T02:19:18.055Z,0
2017-08-14T02:20:20.038Z,0
2017-08-14T02:21:21.466Z,0
2017-08-14T02:22:22.881Z,0
2017-08-14T02:23:24.307Z,0
2017-08-14T02:24:25.730Z,0
2017-08-14T02:25:27.159Z,0
2017-08-14T02:26:28.584Z,0
2017-08-14T02:27:30.005Z,0
2017-08-14T02:28:31.425Z,0
2017-08-14T02:29:32.848Z,0
2017-08-14T02:30:34.268Z,0
2017-08-14T02:31:35.697Z,0
2017-08-14T02:32:37.127Z,0
2017-08-14T02:33:38.554Z,0
2017-08-14T02:34:39.967Z,0
2017-08-14T02:35:41.386Z,0
2017-08-14T02:36:42.814Z,0
2017-08-14T02:37:44.269Z,0
2017-08-14T02:38:45.687Z,0
2017-08-14T02:39:47.109Z,0
2017-08-14T02:40:48.541Z,0
2017-08-14T02:41:49.961Z,0
2017-08-14T02:42:51.385Z,0
2017-08-14T02:43:52.807Z,0
2017-08-14T02:44:54.228Z,0
2017-08-14T02:45:55.656Z,0
2017-08-14T02:46:57.071Z,0
2017-08-14T02:47:58.505Z,0
2017-08-14T02:48:59.924Z,0
2017-08-14T02:50:01.344Z,0
2017-08-14T02:51:02.767Z,0
2017-08-14T02:52:04.184Z,0
2017-08-14T02:53:05.607Z,0
2017-08-14T02:54:07.030Z,0
2017-08-14T02:55:08.455Z,0
2017-08-14T02:56:09.884Z,0
2017-08-14T02:57:11.309Z,0
2017-08-14T02:58:12.728Z,0
2017-08-14T02:59:14.149Z,0
2017-08-14T03:00:15.568Z,0
2017-08-14T03:01:16.993Z,0
2017-08-14T03:02:18.442Z,0
2017-08-14T03:03:19.867Z,0
2017-08-14T03:04:21.293Z,0
2017-08-14T03:05:22.719Z,0
2017-08-14T03:06:24.149Z,0
2017-08-14T03:07:25.576Z,0
2017-08-14T03:08:26.994Z,0
2017-08-14T03:09:28.421Z,0
2017-08-14T03:10:29.846Z,0
2017-08-14T03:11:31.268Z,0
2017-08-14T03:12:32.697Z,0
2017-08-14T03:13:34.876Z,0
2017-08-14T03:14:36.293Z,0
2017-08-14T03:15:37.715Z,0
2017-08-14T03:16:39.135Z,0
2017-08-14T03:17:40.563Z,0
2017-08-14T03:18:41.993Z,0
2017-08-14T03:19:43.420Z,0
2017-08-14T03:20:44.857Z,0
2017-08-14T03:21:46.271Z,0
2017-08-14T03:22:47.805Z,0
2017-08-14T03:23:49.237Z,0
2017-08-14T03:24:50.649Z,0
2017-08-14T03:25:52.120Z,0
2017-08-14T03:26:53.537Z,0
2017-08-14T03:27:54.953Z,0
2017-08-14T03:28:56.381Z,0
2017-08-14T03:29:57.809Z,0
2017-08-14T03:30:59.235Z,0
2017-08-14T03:32:00.664Z,0
2017-08-14T03:33:02.081Z,0
2017-08-14T03:34:03.515Z,0
2017-08-14T03:35:04.946Z,0
2017-08-14T03:36:06.376Z,0
2017-08-14T03:37:07.787Z,0
2017-08-14T03:38:09.208Z,0
2017-08-14T03:39:10.628Z,0
2017-08-14T03:40:12.047Z,0
2017-08-14T03:41:13.471Z,0
2017-08-14T03:42:14.892Z,4
2017-08-14T03:43:16.327Z,4
2017-08-14T03:44:17.730Z,4
2017-08-14T03:45:19.149Z,0
2017-08-14T03:46:20.570Z,0
2017-08-14T03:47:21.992Z,0
2017-08-14T03:48:23.420Z,0
2017-08-14T03:49:24.844Z,0
2017-08-14T03:50:26.259Z,4
2017-08-14T03:51:27.681Z,4
2017-08-14T03:52:29.105Z,0
2017-08-14T03:53:31.179Z,0
2017-08-14T03:54:32.607Z,4
2017-08-14T03:55:34.026Z,0
2017-08-14T03:56:35.445Z,4
2017-08-14T03:57:36.870Z,4
2017-08-14T03:58:38.296Z,4
2017-08-14T03:59:40.454Z,4
2017-08-14T04:00:42.614Z,8
2017-08-14T04:01:44.034Z,8
2017-08-14T04:02:45.463Z,8
2017-08-14T04:03:46.879Z,8
2017-08-14T04:04:48.301Z,12
2017-08-14T04:05:49.727Z,12
2017-08-14T04:06:51.153Z,12
2017-08-14T04:07:52.577Z,12
2017-08-14T04:08:53.999Z,16
2017-08-14T04:09:55.435Z,16
2017-08-14T04:10:56.853Z,20
2017-08-14T04:11:58.278Z,24
2017-08-14T04:12:59.709Z,24
2017-08-14T04:14:01.129Z,28
2017-08-14T04:15:02.552Z,32
2017-08-14T04:16:03.980Z,32
2017-08-14T04:17:05.417Z,36
2017-08-14T04:18:06.851Z,36
2017-08-14T04:19:08.266Z,44
2017-08-14T04:20:09.687Z,44
2017-08-14T04:21:11.116Z,48
2017-08-14T04:22:12.544Z,52
2017-08-14T04:23:13.971Z,56
2017-08-14T04:24:15.392Z,60
2017-08-14T04:25:16.813Z,64
2017-08-14T04:26:18.242Z,64
2017-08-14T04:27:19.666Z,68
2017-08-14T04:28:21.089Z,72
2017-08-14T04:29:22.511Z,76
2017-08-14T04:30:23.932Z,80
2017-08-14T04:31:25.361Z,84
2017-08-14T04:32:26.784Z,88
2017-08-14T04:33:28.209Z,92
2017-08-14T04:34:29.632Z,96
2017-08-14T04:35:31.056Z,104
2017-08-14T04:36:32.477Z,108
2017-08-14T04:37:33.906Z,112
2017-08-14T04:38:35.329Z,116
2017-08-14T04:39:36.753Z,120
2017-08-14T04:40:38.184Z,124
2017-08-14T04:41:39.611Z,128
2017-08-14T04:42:41.038Z,136
2017-08-14T04:43:42.463Z,140
2017-08-14T04:44:43.888Z,144
2017-08-14T04:45:45.309Z,152
2017-08-14T04:46:46.735Z,152
2017-08-14T04:47:48.162Z,156
2017-08-14T04:48:49.596Z,164
2017-08-14T04:49:51.033Z,168
2017-08-14T04:50:52.455Z,172
2017-08-14T04:51:53.879Z,176
2017-08-14T04:52:55.320Z,180
2017-08-14T04:53:56.752Z,188
2017-08-14T04:54:58.178Z,192
2017-08-14T04:55:59.602Z,196
2017-08-14T04:57:01.021Z,204
2017-08-14T04:58:02.453Z,204
2017-08-14T04:59:03.882Z,212
2017-08-14T05:00:05.306Z,216
2017-08-14T05:01:06.741Z,220
2017-08-14T05:02:08.165Z,220
2017-08-14T05:03:09.594Z,224
2017-08-14T05:04:11.012Z,224
2017-08-14T05:05:12.442Z,228
2017-08-14T05:06:13.870Z,236
2017-08-14T05:07:15.291Z,240
2017-08-14T05:08:16.714Z,244
2017-08-14T05:09:18.138Z,248
2017-08-14T05:10:19.561Z,252
2017-08-14T05:11:20.992Z,252
2017-08-14T05:12:22.410Z,256
2017-08-14T05:13:23.829Z,260
2017-08-14T05:14:25.254Z,260
2017-08-14T05:15:26.682Z,264
2017-08-14T05:16:28.112Z,268
2017-08-14T05:17:29.530Z,272
2017-08-14T05:18:30.958Z,276
2017-08-14T05:19:32.384Z,276
2017-08-14T05:20:33.831Z,276
2017-08-14T05:21:35.251Z,284
2017-08-14T05:22:36.684Z,284
2017-08-14T05:23:38.120Z,292
2017-08-14T05:24:40.228Z,292
2017-08-14T05:25:41.651Z,296
2017-08-14T05:26:43.082Z,296
2017-08-14T05:27:44.504Z,300
2017-08-14T05:28:45.930Z,300
2017-08-14T05:29:47.358Z,304
2017-08-14T05:30:48.788Z,308
2017-08-14T05:31:50.220Z,308
2017-08-14T05:32:52.290Z,312
2017-08-14T05:33:53.722Z,316
2017-08-14T05:34:55.143Z,316
2017-08-14T05:35:56.578Z,320
2017-08-14T05:36:58.009Z,316
2017-08-14T05:37:59.433Z,320
2017-08-14T05:39:00.852Z,324
2017-08-14T05:40:02.285Z,324
2017-08-14T05:41:03.716Z,328
2017-08-14T05:42:05.185Z,328
2017-08-14T05:43:06.610Z,328
2017-08-14T05:44:08.036Z,328
2017-08-14T05:45:09.461Z,332
2017-08-14T05:46:10.902Z,332
2017-08-14T05:47:12.321Z,332
2017-08-14T05:48:13.761Z,332
2017-08-14T05:49:15.179Z,332
2017-08-14T05:50:16.614Z,336
2017-08-14T05:51:18.042Z,336
2017-08-14T05:52:19.472Z,336
2017-08-14T05:53:20.902Z,340
2017-08-14T05:54:22.333Z,340
2017-08-14T05:55:23.753Z,340
2017-08-14T05:56:25.179Z,344
2017-08-14T05:57:26.624Z,344
2017-08-14T05:58:28.045Z,348
2017-08-14T05:59:29.471Z,352
2017-08-14T06:00:30.902Z,360
2017-08-14T06:01:32.333Z,356
2017-08-14T06:02:33.762Z,356
2017-08-14T06:03:35.186Z,360
2017-08-14T06:04:36.617Z,356
2017-08-14T06:05:38.040Z,360
2017-08-14T06:06:39.463Z,360
2017-08-14T06:07:40.892Z,360
2017-08-14T06:08:42.313Z,364
2017-08-14T06:09:43.738Z,364
2017-08-14T06:10:45.167Z,368
2017-08-14T06:11:46.601Z,364
2017-08-14T06:12:48.025Z,364
2017-08-14T06:13:49.451Z,368
2017-08-14T06:14:50.871Z,368
2017-08-14T06:15:52.303Z,372
2017-08-14T06:16:53.718Z,372
2017-08-14T06:17:55.155Z,372
2017-08-14T06:18:56.581Z,372
2017-08-14T06:19:58.007Z,372
2017-08-14T06:20:59.432Z,372
2017-08-14T06:22:00.858Z,372
2017-08-14T06:23:02.280Z,372
2017-08-14T06:24:03.704Z,376
2017-08-14T06:25:05.126Z,380
2017-08-14T06:26:06.552Z,380
2017-08-14T06:27:07.981Z,380
2017-08-14T06:28:09.399Z,380
2017-08-14T06:29:10.829Z,384
2017-08-14T06:30:12.266Z,384
2017-08-14T06:31:13.694Z,384
2017-08-14T06:32:15.126Z,384
2017-08-14T06:33:16.564Z,388
2017-08-14T06:34:17.994Z,388
2017-08-14T06:35:19.414Z,388
2017-08-14T06:36:20.845Z,388
2017-08-14T06:37:22.278Z,392
2017-08-14T06:38:23.701Z,392
2017-08-14T06:39:25.128Z,388
2017-08-14T06:40:26.561Z,396
2017-08-14T06:41:27.983Z,396
2017-08-14T06:42:29.405Z,396
2017-08-14T06:43:30.831Z,396
2017-08-14T06:44:32.263Z,400
2017-08-14T06:45:33.689Z,400
2017-08-14T06:46:35.122Z,404
2017-08-14T06:47:36.555Z,404
2017-08-14T06:48:38.002Z,408
2017-08-14T06:49:39.439Z,408
2017-08-14T06:50:40.861Z,412
2017-08-14T06:51:42.302Z,412
2017-08-14T06:52:43.852Z,412
2017-08-14T06:53:45.278Z,416
2017-08-14T06:54:46.701Z,416
2017-08-14T06:55:48.136Z,424
2017-08-14T06:56:50.516Z,424
2017-08-14T06:57:51.948Z,428
2017-08-14T06:58:53.375Z,428
2017-08-14T06:59:54.804Z,436
2017-08-14T07:00:56.232Z,440
2017-08-14T07:01:57.660Z,440
2017-08-14T07:02:59.087Z,444
2017-08-14T07:04:00.508Z,444
2017-08-14T07:05:01.946Z,448
2017-08-14T07:06:03.370Z,456
2017-08-14T07:07:04.802Z,460
2017-08-14T07:08:06.224Z,464
2017-08-14T07:09:07.653Z,468
2017-08-14T07:10:09.085Z,476
2017-08-14T07:11:10.510Z,476
2017-08-14T07:12:11.930Z,488
2017-08-14T07:13:13.356Z,484
2017-08-14T07:14:14.783Z,488
2017-08-14T07:15:16.210Z,492
2017-08-14T07:16:17.645Z,496
2017-08-14T07:17:19.069Z,496
2017-08-14T07:18:20.504Z,500
2017-08-14T07:19:21.937Z,504
2017-08-14T07:20:23.362Z,512
2017-08-14T07:21:24.785Z,512
2017-08-14T07:22:26.215Z,520
2017-08-14T07:23:27.641Z,524
2017-08-14T07:24:29.075Z,532
2017-08-14T07:25:30.509Z,540
2017-08-14T07:26:31.941Z,544
2017-08-14T07:27:33.365Z,552
2017-08-14T07:28:34.789Z,560
2017-08-14T07:29:36.220Z,564
2017-08-14T07:30:37.642Z,568
2017-08-14T07:31:39.074Z,572
2017-08-14T07:32:40.514Z,568
2017-08-14T07:33:41.934Z,576
2017-08-14T07:34:43.363Z,576
2017-08-14T07:35:44.806Z,576
2017-08-14T07:36:46.222Z,528
2017-08-14T07:37:48.280Z,380
2017-08-14T07:38:49.715Z,392
2017-08-14T07:39:51.147Z,596
2017-08-14T07:40:52.572Z,604
2017-08-14T07:41:54.084Z,604
2017-08-14T07:42:55.509Z,608
2017-08-14T07:43:56.944Z,608
2017-08-14T07:44:58.376Z,612
2017-08-14T07:45:59.815Z,616
2017-08-14T07:47:01.245Z,620
2017-08-14T07:48:02.672Z,620
2017-08-14T07:49:04.110Z,624
2017-08-14T07:50:05.536Z,624
2017-08-14T07:51:06.963Z,628
2017-08-14T07:52:08.412Z,628
2017-08-14T07:53:09.842Z,632
2017-08-14T07:54:11.272Z,636
2017-08-14T07:55:12.700Z,636
2017-08-14T07:56:14.208Z,640
2017-08-14T07:57:15.662Z,644
2017-08-14T07:58:17.096Z,644
2017-08-14T07:59:18.518Z,648
2017-08-14T08:00:19.952Z,652
2017-08-14T08:01:21.375Z,652
2017-08-14T08:02:22.801Z,652
2017-08-14T08:03:24.233Z,652
2017-08-14T08:04:25.664Z,656
2017-08-14T08:05:27.097Z,660
2017-08-14T08:06:28.519Z,668
2017-08-14T08:07:29.953Z,664
2017-08-14T08:08:31.384Z,668
2017-08-14T08:09:32.810Z,672
2017-08-14T08:10:34.255Z,668
2017-08-14T08:11:35.677Z,672
2017-08-14T08:12:37.839Z,680
2017-08-14T08:13:39.287Z,676
2017-08-14T08:14:40.713Z,676
2017-08-14T08:15:42.136Z,680
2017-08-14T08:16:43.565Z,684
2017-08-14T08:17:44.994Z,688
2017-08-14T08:18:46.424Z,688
2017-08-14T08:19:47.842Z,692
2017-08-14T08:20:49.272Z,700
2017-08-14T08:21:50.710Z,704
2017-08-14T08:22:52.138Z,708
2017-08-14T08:23:53.572Z,712
2017-08-14T08:24:55.003Z,716
2017-08-14T08:25:56.437Z,720
2017-08-14T08:26:57.868Z,704
2017-08-14T08:27:59.299Z,708
2017-08-14T08:29:00.721Z,736
2017-08-14T08:30:02.150Z,736
2017-08-14T08:31:03.587Z,744
2017-08-14T08:32:05.012Z,744
2017-08-14T08:33:06.443Z,756
2017-08-14T08:34:07.865Z,760
2017-08-14T08:35:09.298Z,760
2017-08-14T08:36:10.734Z,768
2017-08-14T08:37:12.154Z,772
2017-08-14T08:38:13.588Z,772
2017-08-14T08:39:15.017Z,772
2017-08-14T08:40:16.446Z,776
2017-08-14T08:41:17.874Z,780
2017-08-14T08:42:19.303Z,780
2017-08-14T08:43:20.731Z,780
2017-08-14T08:44:22.236Z,776
2017-08-14T08:45:23.668Z,788
2017-08-14T08:46:25.093Z,784
2017-08-14T08:47:26.531Z,792
2017-08-14T08:48:28.002Z,792
2017-08-14T08:49:29.427Z,796
2017-08-14T08:50:30.859Z,800
2017-08-14T08:51:32.287Z,804
2017-08-14T08:52:33.720Z,808
2017-08-14T08:53:35.153Z,812
2017-08-14T08:54:36.587Z,812
2017-08-14T08:55:38.146Z,816
2017-08-14T08:56:39.578Z,820
2017-08-14T08:57:41.016Z,824
2017-08-14T08:58:42.476Z,828
2017-08-14T08:59:43.907Z,832
2017-08-14T09:00:45.334Z,840
2017-08-14T09:01:46.775Z,840
2017-08-14T09:02:48.209Z,844
2017-08-14T09:03:49.634Z,848
2017-08-14T09:04:51.057Z,856
2017-08-14T09:05:52.498Z,860
2017-08-14T09:06:53.931Z,856
2017-08-14T09:07:55.361Z,864
2017-08-14T09:08:56.797Z,844
2017-08-14T09:09:58.310Z,872
2017-08-14T09:10:59.739Z,880
2017-08-14T09:12:01.171Z,884
2017-08-14T09:13:02.645Z,888
2017-08-14T09:14:04.038Z,888
2017-08-14T09:15:05.808Z,896
2017-08-14T09:16:07.236Z,900
2017-08-14T09:17:08.674Z,908
2017-08-14T09:18:10.104Z,912
2017-08-14T09:19:11.541Z,920
2017-08-14T09:20:12.976Z,924
2017-08-14T09:21:14.409Z,936
2017-08-14T09:22:15.833Z,948
2017-08-14T09:23:17.263Z,976
2017-08-14T09:24:18.692Z,1020
2017-08-14T09:25:20.126Z,1064
2017-08-14T09:26:21.554Z,1104
2017-08-14T09:27:22.984Z,1148
2017-08-14T09:28:24.426Z,1268
2017-08-14T09:29:25.868Z,1372
2017-08-14T09:30:27.297Z,1420
2017-08-14T09:31:28.725Z,1504
2017-08-14T09:32:30.161Z,1644
2017-08-14T09:33:31.768Z,1724
2017-08-14T09:34:33.202Z,1744
2017-08-14T09:35:34.630Z,2120
2017-08-14T09:36:36.070Z,2072
2017-08-14T09:37:37.505Z,2116
2017-08-14T09:38:38.937Z,2100
2017-08-14T09:39:40.366Z,2056
2017-08-14T09:40:41.793Z,1820
2017-08-14T09:41:43.231Z,1904
2017-08-14T09:42:44.665Z,2064
2017-08-14T09:43:46.111Z,1580
2017-08-14T09:44:47.544Z,1456
2017-08-14T09:45:48.971Z,1412
2017-08-14T09:46:50.410Z,1420
2017-08-14T09:47:51.845Z,1836
2017-08-14T09:48:53.274Z,2036
2017-08-14T09:49:54.712Z,2068
2017-08-14T09:50:56.152Z,1856
2017-08-14T09:51:57.576Z,1836
2017-08-14T09:52:59.000Z,1888
2017-08-14T09:54:00.433Z,1632
2017-08-14T09:55:01.872Z,1356
2017-08-14T09:56:03.302Z,1204
2017-08-14T09:57:04.734Z,1468
2017-08-14T09:58:06.968Z,2068
2017-08-14T09:59:09.338Z,1992
2017-08-14T10:00:10.778Z,1788
2017-08-14T10:01:12.203Z,1408
2017-08-14T10:02:13.635Z,1772
2017-08-14T10:03:15.079Z,1828
2017-08-14T10:04:16.507Z,1888
2017-08-14T10:05:17.940Z,1724
2017-08-14T10:06:19.372Z,1588
2017-08-14T10:07:20.807Z,1912
2017-08-14T10:08:22.242Z,1916
2017-08-14T10:09:23.678Z,1864
2017-08-14T10:10:25.117Z,1708
2017-08-14T10:11:26.545Z,1644
2017-08-14T10:12:27.978Z,1860
2017-08-14T10:13:29.407Z,2208
2017-08-14T10:14:30.845Z,2268
2017-08-14T10:15:32.273Z,2212
2017-08-14T10:16:33.704Z,1960
2017-08-14T10:17:35.148Z,1952
2017-08-14T10:18:36.581Z,2188
2017-08-14T10:19:38.019Z,2328
2017-08-14T10:20:39.452Z,2124
2017-08-14T10:21:40.879Z,2504
2017-08-14T10:22:42.316Z,2056
2017-08-14T10:23:43.750Z,2080
2017-08-14T10:24:45.181Z,2412
2017-08-14T10:25:46.616Z,1952
2017-08-14T10:26:48.056Z,2432
2017-08-14T10:27:49.490Z,2212
2017-08-14T10:28:50.924Z,1912
2017-08-14T10:29:52.354Z,1880
2017-08-14T10:30:53.789Z,1900
2017-08-14T10:31:55.224Z,1768
2017-08-14T10:32:57.501Z,2052
2017-08-14T10:33:58.034Z,2124
2017-08-14T10:34:59.466Z,1984
2017-08-14T10:36:00.903Z,1936
2017-08-14T10:37:02.341Z,1920
2017-08-14T10:38:03.772Z,1896
2017-08-14T10:39:05.214Z,1896
2017-08-14T10:40:06.647Z,1908
2017-08-14T10:41:08.084Z,2012
2017-08-14T10:42:09.510Z,2176
2017-08-14T10:43:10.954Z,2408
2017-08-14T10:44:12.382Z,2604
2017-08-14T10:45:13.818Z,2744
2017-08-14T10:46:15.255Z,2224
2017-08-14T10:47:16.689Z,2160
2017-08-14T10:48:18.132Z,2476
2017-08-14T10:49:19.561Z,2392
2017-08-14T10:50:20.989Z,2520
2017-08-14T10:51:22.434Z,2464
2017-08-14T10:52:23.864Z,2576
2017-08-14T10:53:25.300Z,1816
2017-08-14T10:54:26.733Z,1988
2017-08-14T10:55:28.164Z,1960
2017-08-14T10:56:29.599Z,2848
2017-08-14T10:57:31.902Z,2672
2017-08-14T10:58:33.336Z,2424
2017-08-14T10:59:34.779Z,1504
2017-08-14T11:00:36.212Z,1484
2017-08-14T11:01:37.643Z,1472
2017-08-14T11:02:39.104Z,1400
2017-08-14T11:03:40.548Z,1496
2017-08-14T11:04:41.985Z,2216
2017-08-14T11:05:43.424Z,1872
2017-08-14T11:06:44.865Z,2444
2017-08-14T11:07:46.300Z,3360
2017-08-14T11:08:47.791Z,3492
2017-08-14T11:09:49.230Z,3448
2017-08-14T11:10:50.660Z,2760
2017-08-14T11:11:52.100Z,3004
2017-08-14T11:12:53.539Z,2920
2017-08-14T11:13:54.976Z,2376
2017-08-14T11:14:56.420Z,2564
2017-08-14T11:15:57.845Z,2872
2017-08-14T11:16:59.296Z,3224
2017-08-14T11:18:00.732Z,3416
2017-08-14T11:19:02.268Z,2692
2017-08-14T11:20:03.697Z,3200
2017-08-14T11:21:05.125Z,1908
2017-08-14T11:22:06.566Z,1816
2017-08-14T11:23:08.001Z,2744
2017-08-14T11:24:09.433Z,2760
2017-08-14T11:25:10.864Z,2776
2017-08-14T11:26:12.352Z,2764
2017-08-14T11:27:13.802Z,2760
2017-08-14T11:28:15.234Z,2764
2017-08-14T11:29:16.674Z,2800
2017-08-14T11:30:18.116Z,2788
2017-08-14T11:31:19.551Z,2572
2017-08-14T11:32:20.998Z,3120
2017-08-14T11:33:22.433Z,2860
2017-08-14T11:34:23.881Z,2752
2017-08-14T11:35:25.319Z,2772
2017-08-14T11:36:26.748Z,2856
2017-08-14T11:37:28.196Z,2824
2017-08-14T11:38:29.634Z,3008
2017-08-14T11:39:31.075Z,2620
2017-08-14T11:40:32.508Z,2972
2017-08-14T11:41:33.945Z,2660
2017-08-14T11:42:35.376Z,2032
2017-08-14T11:43:36.813Z,2368
2017-08-14T11:44:38.251Z,2280
2017-08-14T11:45:39.695Z,2340
2017-08-14T11:46:41.127Z,2256
2017-08-14T11:47:42.564Z,2648
2017-08-14T11:48:43.997Z,2752
2017-08-14T11:49:45.429Z,2956
2017-08-14T11:50:46.863Z,2668
2017-08-14T11:51:48.298Z,2308
2017-08-14T11:52:49.728Z,2468
2017-08-14T11:53:51.168Z,2704
2017-08-14T11:54:52.605Z,2380
2017-08-14T11:55:54.045Z,3484
2017-08-14T11:56:55.475Z,3600
2017-08-14T11:57:56.906Z,3348
2017-08-14T11:58:58.335Z,3544
2017-08-14T11:59:59.766Z,3724
2017-08-14T12:01:01.199Z,3616
2017-08-14T12:02:02.634Z,3828
2017-08-14T12:03:04.075Z,4188
2017-08-14T12:04:05.506Z,4644
2017-08-14T12:05:06.947Z,5004
2017-08-14T12:06:08.375Z,4712
2017-08-14T12:07:10.415Z,4620
2017-08-14T12:08:11.849Z,4444
2017-08-14T12:09:13.287Z,3580
2017-08-14T12:10:14.730Z,4620
2017-08-14T12:11:16.165Z,4696
2017-08-14T12:12:17.599Z,5208
2017-08-14T12:13:19.033Z,4356
2017-08-14T12:14:20.485Z,4896
2017-08-14T12:15:22.432Z,4512
2017-08-14T12:16:23.869Z,3404
2017-08-14T12:17:25.313Z,4616
2017-08-14T12:18:26.755Z,4344
2017-08-14T12:19:29.069Z,3340
2017-08-14T12:20:30.506Z,3136
2017-08-14T12:21:31.939Z,3160
2017-08-14T12:22:33.374Z,3424
2017-08-14T12:23:34.819Z,3060
2017-08-14T12:24:36.256Z,3008
2017-08-14T12:25:37.697Z,3340
2017-08-14T12:26:39.133Z,3448
2017-08-14T12:27:40.570Z,4552
2017-08-14T12:28:42.004Z,4192
2017-08-14T12:29:43.441Z,4148
2017-08-14T12:30:44.874Z,3420
2017-08-14T12:31:46.310Z,2664
2017-08-14T12:32:47.742Z,2580
2017-08-14T12:33:49.180Z,3340
2017-08-14T12:34:50.624Z,3456
2017-08-14T12:35:52.055Z,3852
2017-08-14T12:36:53.488Z,2896
2017-08-14T12:37:54.926Z,3648
2017-08-14T12:38:56.364Z,3520
2017-08-14T12:39:57.793Z,2776
2017-08-14T12:40:59.235Z,2804
2017-08-14T12:42:00.678Z,3600
2017-08-14T12:43:02.116Z,3212
2017-08-14T12:44:03.553Z,2800
2017-08-14T12:45:04.985Z,2316
2017-08-14T12:46:06.429Z,3036
2017-08-14T12:47:07.870Z,2532
2017-08-14T12:48:09.308Z,2504
2017-08-14T12:49:10.744Z,3000
2017-08-14T12:50:12.182Z,3504
2017-08-14T12:51:13.624Z,3792
2017-08-14T12:52:15.057Z,4088
2017-08-14T12:53:16.498Z,5020
2017-08-14T12:54:17.944Z,4280
2017-08-14T12:55:19.375Z,3984
2017-08-14T12:56:20.830Z,4268
2017-08-14T12:57:22.270Z,4040
2017-08-14T12:58:23.713Z,3872
2017-08-14T12:59:25.161Z,4092
2017-08-14T13:00:26.603Z,4784
2017-08-14T13:01:28.042Z,5324
2017-08-14T13:02:29.475Z,4516
2017-08-14T13:03:30.903Z,4136
2017-08-14T13:04:32.339Z,3964
2017-08-14T13:05:33.771Z,4168
2017-08-14T13:06:35.216Z,4276
2017-08-14T13:07:36.654Z,3540
2017-08-14T13:08:38.089Z,3496
2017-08-14T13:09:39.531Z,3884
2017-08-14T13:10:40.975Z,3536
2017-08-14T13:11:42.415Z,3684
2017-08-14T13:12:43.853Z,4244
2017-08-14T13:13:45.294Z,4048
2017-08-14T13:14:46.733Z,4000
2017-08-14T13:15:48.170Z,3908
2017-08-14T13:16:49.613Z,3688
2017-08-14T13:17:51.047Z,3448
2017-08-14T13:18:52.476Z,3248
2017-08-14T13:19:53.928Z,2836
2017-08-14T13:20:55.366Z,2744
2017-08-14T13:21:56.809Z,2868
2017-08-14T13:22:58.241Z,3368
2017-08-14T13:23:59.698Z,3932
2017-08-14T13:25:01.146Z,4784
2017-08-14T13:26:02.569Z,5376
2017-08-14T13:27:04.006Z,4972
2017-08-14T13:28:05.448Z,5312
2017-08-14T13:29:06.881Z,4844
2017-08-14T13:30:08.325Z,4632
2017-08-14T13:31:09.764Z,4276
2017-08-14T13:32:11.240Z,4212
2017-08-14T13:33:12.685Z,4072
2017-08-14T13:34:14.127Z,4400
2017-08-14T13:35:15.579Z,5000
2017-08-14T13:36:17.010Z,4768
2017-08-14T13:37:18.447Z,4384
2017-08-14T13:38:19.889Z,5220
2017-08-14T13:39:21.320Z,4876
2017-08-14T13:40:22.968Z,6368
2017-08-14T13:41:24.423Z,29088
2017-08-14T13:42:25.863Z,53504
2017-08-14T13:43:27.310Z,36864
2017-08-14T13:44:28.760Z,24704
2017-08-14T13:45:30.201Z,22016
2017-08-14T13:46:31.634Z,42112
2017-08-14T13:47:33.073Z,22048
2017-08-14T13:48:34.544Z,30528
2017-08-14T13:49:35.993Z,12092
2017-08-14T13:50:37.431Z,2856
2017-08-14T13:51:38.861Z,2340
2017-08-14T13:52:40.305Z,2348
2017-08-14T13:53:41.736Z,1044
2017-08-14T13:54:43.173Z,2372
2017-08-14T13:56:35.173Z,1964
2017-08-14T13:57:36.606Z,2248
2017-08-14T13:58:38.049Z,2452
2017-08-14T13:59:39.479Z,2644
2017-08-14T14:00:40.921Z,3032
2017-08-14T14:01:42.360Z,3516
2017-08-14T14:02:43.800Z,3764
2017-08-14T14:03:45.847Z,4128
2017-08-14T14:04:47.278Z,3788
2017-08-14T14:05:48.706Z,3964
2017-08-14T14:06:50.144Z,3948
2017-08-14T14:07:51.589Z,3732
2017-08-14T14:08:53.017Z,3724
2017-08-14T14:09:54.454Z,3740
2017-08-14T14:10:55.895Z,3316
2017-08-14T14:11:57.329Z,3104
2017-08-14T14:12:58.764Z,2840
2017-08-14T14:14:00.191Z,2324